sensor_id;sensor_type;location;lat;lon;timestamp;P1;durP1;ratioP1;P2;durP2;ratioP2
78622;SDS011;67943;54.412;9.502;2024-02-21T00:00:31;36.20;;;9.73;;
78622;SDS011;67943;54.412;9.502;2024-02-21T00:05:32;29.77;;;8.23;;
78622;SDS011;67943;54.412;9.502;2024-02-21T00:10:35;34.75;;;8.73;;
78622;SDS011;67943;54.412;9.502;2024-02-21T00:15:37;32.50;;;7.90;;
78622;SDS011;67943;54.412;9.502;2024-02-21T00:20:38;27.08;;;7.97;;
78622;SDS011;67943;54.412;9.502;2024-02-21T00:25:41;34.33;;;8.82;;
78622;SDS011;67943;54.412;9.502;2024-02-21T00:30:43;29.73;;;8.70;;
78622;SDS011;67943;54.412;9.502;2024-02-21T00:35:45;29.83;;;8.30;;
78622;SDS011;67943;54.412;9.502;2024-02-21T00:40:48;21.77;;;8.48;;
78622;SDS011;67943;54.412;9.502;2024-02-21T00:45:49;30.77;;;8.88;;
78622;SDS011;67943;54.412;9.502;2024-02-21T00:50:51;28.15;;;7.97;;
78622;SDS011;67943;54.412;9.502;2024-02-21T00:55:54;20.63;;;8.15;;
78622;SDS011;67943;54.412;9.502;2024-02-21T01:00:57;31.08;;;8.63;;
78622;SDS011;67943;54.412;9.502;2024-02-21T01:05:58;29.25;;;8.63;;
78622;SDS011;67943;54.412;9.502;2024-02-21T01:11:01;30.40;;;9.40;;
78622;SDS011;67943;54.412;9.502;2024-02-21T01:16:03;23.13;;;8.15;;
78622;SDS011;67943;54.412;9.502;2024-02-21T01:21:06;17.73;;;6.93;;
78622;SDS011;67943;54.412;9.502;2024-02-21T01:26:09;16.45;;;6.93;;
78622;SDS011;67943;54.412;9.502;2024-02-21T01:31:13;16.48;;;5.80;;
78622;SDS011;67943;54.412;9.502;2024-02-21T01:36:15;17.27;;;6.32;;
78622;SDS011;67943;54.412;9.502;2024-02-21T01:41:18;14.50;;;6.20;;
78622;SDS011;67943;54.412;9.502;2024-02-21T01:46:19;15.00;;;6.25;;
78622;SDS011;67943;54.412;9.502;2024-02-21T01:51:21;17.90;;;6.90;;
78622;SDS011;67943;54.412;9.502;2024-02-21T01:56:24;19.65;;;6.88;;
78622;SDS011;67943;54.412;9.502;2024-02-21T02:01:26;23.45;;;8.45;;
78622;SDS011;67943;54.412;9.502;2024-02-21T02:06:28;28.00;;;8.75;;
78622;SDS011;67943;54.412;9.502;2024-02-21T02:11:31;21.17;;;7.95;;
78622;SDS011;67943;54.412;9.502;2024-02-21T02:16:33;21.48;;;8.00;;
78622;SDS011;67943;54.412;9.502;2024-02-21T02:21:35;15.18;;;7.28;;
78622;SDS011;67943;54.412;9.502;2024-02-21T02:26:42;16.25;;;6.80;;
78622;SDS011;67943;54.412;9.502;2024-02-21T02:31:43;18.10;;;6.82;;
78622;SDS011;67943;54.412;9.502;2024-02-21T02:36:45;23.25;;;8.30;;
78622;SDS011;67943;54.412;9.502;2024-02-21T02:41:50;20.27;;;6.88;;
78622;SDS011;67943;54.412;9.502;2024-02-21T02:46:51;21.30;;;6.07;;
78622;SDS011;67943;54.412;9.502;2024-02-21T02:51:53;17.08;;;4.85;;
78622;SDS011;67943;54.412;9.502;2024-02-21T02:56:56;19.40;;;5.32;;
78622;SDS011;67943;54.412;9.502;2024-02-21T03:01:57;14.80;;;4.28;;
78622;SDS011;67943;54.412;9.502;2024-02-21T03:07:11;17.30;;;4.53;;
78622;SDS011;67943;54.412;9.502;2024-02-21T03:12:14;15.38;;;4.25;;
78622;SDS011;67943;54.412;9.502;2024-02-21T03:17:24;14.50;;;4.32;;
78622;SDS011;67943;54.412;9.502;2024-02-21T03:22:27;13.65;;;3.38;;
78622;SDS011;67943;54.412;9.502;2024-02-21T03:27:30;19.60;;;4.50;;
78622;SDS011;67943;54.412;9.502;2024-02-21T03:32:31;23.08;;;4.82;;
78622;SDS011;67943;54.412;9.502;2024-02-21T03:37:45;22.77;;;5.45;;
78622;SDS011;67943;54.412;9.502;2024-02-21T03:42:48;24.45;;;4.55;;
78622;SDS011;67943;54.412;9.502;2024-02-21T03:47:49;32.95;;;5.53;;
78622;SDS011;67943;54.412;9.502;2024-02-21T03:52:51;27.00;;;5.20;;
78622;SDS011;67943;54.412;9.502;2024-02-21T03:57:54;18.15;;;4.90;;
78622;SDS011;67943;54.412;9.502;2024-02-21T04:02:55;34.90;;;5.88;;
78622;SDS011;67943;54.412;9.502;2024-02-21T04:07:57;23.73;;;5.05;;
78622;SDS011;67943;54.412;9.502;2024-02-21T04:13:00;21.83;;;4.95;;
78622;SDS011;67943;54.412;9.502;2024-02-21T04:18:01;26.73;;;6.05;;
78622;SDS011;67943;54.412;9.502;2024-02-21T04:23:04;19.70;;;4.50;;
78622;SDS011;67943;54.412;9.502;2024-02-21T04:28:07;22.25;;;5.80;;
78622;SDS011;67943;54.412;9.502;2024-02-21T04:33:08;21.10;;;5.53;;
78622;SDS011;67943;54.412;9.502;2024-02-21T04:38:10;25.98;;;6.95;;
78622;SDS011;67943;54.412;9.502;2024-02-21T04:43:13;24.40;;;4.97;;
78622;SDS011;67943;54.412;9.502;2024-02-21T04:48:14;23.40;;;4.70;;
78622;SDS011;67943;54.412;9.502;2024-02-21T04:53:16;27.27;;;5.35;;
78622;SDS011;67943;54.412;9.502;2024-02-21T04:58:19;22.02;;;5.35;;
78622;SDS011;67943;54.412;9.502;2024-02-21T05:03:20;28.02;;;4.93;;
78622;SDS011;67943;54.412;9.502;2024-02-21T05:08:22;29.95;;;5.25;;
78622;SDS011;67943;54.412;9.502;2024-02-21T05:13:25;28.42;;;5.32;;
78622;SDS011;67943;54.412;9.502;2024-02-21T05:18:26;32.40;;;5.60;;
78622;SDS011;67943;54.412;9.502;2024-02-21T05:23:28;29.90;;;4.43;;
78622;SDS011;67943;54.412;9.502;2024-02-21T05:28:31;20.70;;;4.28;;
78622;SDS011;67943;54.412;9.502;2024-02-21T05:33:32;28.23;;;4.55;;
78622;SDS011;67943;54.412;9.502;2024-02-21T05:38:34;36.42;;;4.90;;
78622;SDS011;67943;54.412;9.502;2024-02-21T05:43:37;26.92;;;4.45;;
78622;SDS011;67943;54.412;9.502;2024-02-21T05:48:38;21.52;;;4.30;;
78622;SDS011;67943;54.412;9.502;2024-02-21T05:53:40;26.27;;;4.70;;
78622;SDS011;67943;54.412;9.502;2024-02-21T05:58:43;28.23;;;4.25;;
78622;SDS011;67943;54.412;9.502;2024-02-21T06:03:45;31.08;;;5.82;;
78622;SDS011;67943;54.412;9.502;2024-02-21T06:08:46;30.88;;;4.57;;
78622;SDS011;67943;54.412;9.502;2024-02-21T06:13:49;26.67;;;5.07;;
78622;SDS011;67943;54.412;9.502;2024-02-21T06:18:51;27.35;;;5.43;;
78622;SDS011;67943;54.412;9.502;2024-02-21T06:23:52;41.00;;;6.45;;
78622;SDS011;67943;54.412;9.502;2024-02-21T06:28:55;27.10;;;5.05;;
78622;SDS011;67943;54.412;9.502;2024-02-21T06:33:57;37.05;;;5.53;;
78622;SDS011;67943;54.412;9.502;2024-02-21T06:38:59;25.83;;;5.45;;
78622;SDS011;67943;54.412;9.502;2024-02-21T06:44:01;27.90;;;4.95;;
78622;SDS011;67943;54.412;9.502;2024-02-21T06:49:03;26.70;;;4.90;;
78622;SDS011;67943;54.412;9.502;2024-02-21T06:54:05;29.90;;;4.82;;
78622;SDS011;67943;54.412;9.502;2024-02-21T06:59:08;30.55;;;5.15;;
78622;SDS011;67943;54.412;9.502;2024-02-21T07:04:10;34.85;;;5.38;;
78622;SDS011;67943;54.412;9.502;2024-02-21T07:09:12;26.85;;;4.55;;
78622;SDS011;67943;54.412;9.502;2024-02-21T07:14:15;23.38;;;4.72;;
78622;SDS011;67943;54.412;9.502;2024-02-21T07:19:16;26.33;;;5.10;;
78622;SDS011;67943;54.412;9.502;2024-02-21T07:24:18;31.08;;;4.63;;
78622;SDS011;67943;54.412;9.502;2024-02-21T07:29:21;29.75;;;4.10;;
78622;SDS011;67943;54.412;9.502;2024-02-21T07:34:22;27.27;;;4.72;;
78622;SDS011;67943;54.412;9.502;2024-02-21T07:39:24;34.38;;;5.50;;
78622;SDS011;67943;54.412;9.502;2024-02-21T07:44:27;38.10;;;6.63;;
78622;SDS011;67943;54.412;9.502;2024-02-21T07:49:28;35.00;;;4.45;;
78622;SDS011;67943;54.412;9.502;2024-02-21T07:54:30;35.58;;;5.57;;
78622;SDS011;67943;54.412;9.502;2024-02-21T07:59:32;43.15;;;5.70;;
78622;SDS011;67943;54.412;9.502;2024-02-21T08:04:34;31.58;;;5.32;;
78622;SDS011;67943;54.412;9.502;2024-02-21T08:09:36;24.80;;;4.18;;
78622;SDS011;67943;54.412;9.502;2024-02-21T08:14:39;23.10;;;4.85;;
78622;SDS011;67943;54.412;9.502;2024-02-21T08:19:41;31.92;;;4.63;;
78622;SDS011;67943;54.412;9.502;2024-02-21T08:24:42;30.45;;;4.85;;
78622;SDS011;67943;54.412;9.502;2024-02-21T08:29:45;28.77;;;4.43;;
78622;SDS011;67943;54.412;9.502;2024-02-21T08:34:47;33.10;;;4.85;;
78622;SDS011;67943;54.412;9.502;2024-02-21T08:39:48;20.10;;;4.28;;
78622;SDS011;67943;54.412;9.502;2024-02-21T08:44:51;36.67;;;5.05;;
78622;SDS011;67943;54.412;9.502;2024-02-21T08:49:53;25.00;;;3.88;;
78622;SDS011;67943;54.412;9.502;2024-02-21T08:54:54;25.05;;;3.92;;
78622;SDS011;67943;54.412;9.502;2024-02-21T08:59:57;31.75;;;4.60;;
78622;SDS011;67943;54.412;9.502;2024-02-21T09:04:59;26.98;;;4.75;;
78622;SDS011;67943;54.412;9.502;2024-02-21T09:10:00;26.85;;;5.30;;
78622;SDS011;67943;54.412;9.502;2024-02-21T09:15:05;27.58;;;4.32;;
78622;SDS011;67943;54.412;9.502;2024-02-21T09:20:07;29.15;;;5.07;;
78622;SDS011;67943;54.412;9.502;2024-02-21T09:25:12;22.83;;;4.32;;
78622;SDS011;67943;54.412;9.502;2024-02-21T09:30:15;23.10;;;3.67;;
78622;SDS011;67943;54.412;9.502;2024-02-21T09:35:16;23.85;;;3.78;;
78622;SDS011;67943;54.412;9.502;2024-02-21T09:40:18;19.90;;;3.30;;
78622;SDS011;67943;54.412;9.502;2024-02-21T09:45:21;26.08;;;5.00;;
78622;SDS011;67943;54.412;9.502;2024-02-21T09:50:24;21.52;;;4.00;;
78622;SDS011;67943;54.412;9.502;2024-02-21T09:55:28;19.10;;;3.30;;
78622;SDS011;67943;54.412;9.502;2024-02-21T10:00:33;25.40;;;3.90;;
78622;SDS011;67943;54.412;9.502;2024-02-21T10:05:36;15.57;;;3.00;;
78622;SDS011;67943;54.412;9.502;2024-02-21T10:10:42;16.85;;;3.95;;
78622;SDS011;67943;54.412;9.502;2024-02-21T10:15:45;15.57;;;4.20;;
78622;SDS011;67943;54.412;9.502;2024-02-21T10:20:59;20.50;;;3.70;;
78622;SDS011;67943;54.412;9.502;2024-02-21T10:26:04;23.05;;;3.53;;
78622;SDS011;67943;54.412;9.502;2024-02-21T10:31:08;14.75;;;3.08;;
78622;SDS011;67943;54.412;9.502;2024-02-21T10:36:11;13.48;;;2.92;;
78622;SDS011;67943;54.412;9.502;2024-02-21T10:41:13;22.45;;;3.90;;
78622;SDS011;67943;54.412;9.502;2024-02-21T10:46:18;20.02;;;3.40;;
78622;SDS011;67943;54.412;9.502;2024-02-21T10:51:20;15.32;;;2.97;;
78622;SDS011;67943;54.412;9.502;2024-02-21T10:56:31;15.63;;;1.92;;
78622;SDS011;67943;54.412;9.502;2024-02-21T11:01:37;21.70;;;2.75;;
78622;SDS011;67943;54.412;9.502;2024-02-21T11:06:39;16.33;;;3.33;;
78622;SDS011;67943;54.412;9.502;2024-02-21T11:11:43;15.10;;;3.42;;
78622;SDS011;67943;54.412;9.502;2024-02-21T11:16:47;17.17;;;3.53;;
78622;SDS011;67943;54.412;9.502;2024-02-21T11:21:49;21.75;;;3.75;;
78622;SDS011;67943;54.412;9.502;2024-02-21T11:26:51;17.55;;;3.63;;
78622;SDS011;67943;54.412;9.502;2024-02-21T11:31:54;12.82;;;3.63;;
78622;SDS011;67943;54.412;9.502;2024-02-21T11:36:56;22.92;;;4.78;;
78622;SDS011;67943;54.412;9.502;2024-02-21T11:42:01;14.60;;;4.38;;
78622;SDS011;67943;54.412;9.502;2024-02-21T11:47:05;20.98;;;6.82;;
78622;SDS011;67943;54.412;9.502;2024-02-21T11:52:07;20.98;;;6.32;;
78622;SDS011;67943;54.412;9.502;2024-02-21T11:57:08;20.13;;;5.47;;
78622;SDS011;67943;54.412;9.502;2024-02-21T12:02:13;17.70;;;5.78;;
78622;SDS011;67943;54.412;9.502;2024-02-21T12:07:16;21.15;;;5.93;;
78622;SDS011;67943;54.412;9.502;2024-02-21T12:12:19;20.25;;;5.57;;
78622;SDS011;67943;54.412;9.502;2024-02-21T12:17:22;16.85;;;4.47;;
78622;SDS011;67943;54.412;9.502;2024-02-21T12:22:32;19.21;;;5.10;;
78622;SDS011;67943;54.412;9.502;2024-02-21T12:27:34;15.07;;;5.15;;
78622;SDS011;67943;54.412;9.502;2024-02-21T12:32:37;13.38;;;5.18;;
78622;SDS011;67943;54.412;9.502;2024-02-21T12:37:47;17.92;;;4.78;;
78622;SDS011;67943;54.412;9.502;2024-02-21T12:42:49;12.13;;;5.57;;
78622;SDS011;67943;54.412;9.502;2024-02-21T12:47:54;7.75;;;5.13;;
78622;SDS011;67943;54.412;9.502;2024-02-21T12:52:55;11.32;;;5.72;;
78622;SDS011;67943;54.412;9.502;2024-02-21T12:58:02;9.23;;;5.63;;
78622;SDS011;67943;54.412;9.502;2024-02-21T13:03:06;10.65;;;5.20;;
78622;SDS011;67943;54.412;9.502;2024-02-21T13:08:08;9.57;;;5.03;;
78622;SDS011;67943;54.412;9.502;2024-02-21T13:13:10;15.50;;;6.47;;
78622;SDS011;67943;54.412;9.502;2024-02-21T13:18:13;15.13;;;6.85;;
78622;SDS011;67943;54.412;9.502;2024-02-21T13:23:15;14.48;;;7.03;;
78622;SDS011;67943;54.412;9.502;2024-02-21T13:28:16;15.60;;;7.07;;
78622;SDS011;67943;54.412;9.502;2024-02-21T13:33:19;16.60;;;7.30;;
78622;SDS011;67943;54.412;9.502;2024-02-21T13:38:24;19.13;;;7.80;;
78622;SDS011;67943;54.412;9.502;2024-02-21T13:43:25;21.90;;;10.15;;
78622;SDS011;67943;54.412;9.502;2024-02-21T13:48:28;18.63;;;10.95;;
78622;SDS011;67943;54.412;9.502;2024-02-21T13:53:30;25.33;;;12.60;;
78622;SDS011;67943;54.412;9.502;2024-02-21T13:58:31;20.38;;;11.05;;
78622;SDS011;67943;54.412;9.502;2024-02-21T14:03:34;23.45;;;10.90;;
78622;SDS011;67943;54.412;9.502;2024-02-21T14:08:36;21.65;;;11.13;;
78622;SDS011;67943;54.412;9.502;2024-02-21T14:13:39;18.75;;;10.77;;
78622;SDS011;67943;54.412;9.502;2024-02-21T14:18:42;22.33;;;10.65;;
78622;SDS011;67943;54.412;9.502;2024-02-21T14:23:44;24.58;;;12.57;;
78622;SDS011;67943;54.412;9.502;2024-02-21T14:28:45;25.15;;;12.23;;
78622;SDS011;67943;54.412;9.502;2024-02-21T14:33:48;21.48;;;12.13;;
78622;SDS011;67943;54.412;9.502;2024-02-21T14:38:50;23.73;;;14.30;;
78622;SDS011;67943;54.412;9.502;2024-02-21T14:43:52;29.30;;;15.02;;
78622;SDS011;67943;54.412;9.502;2024-02-21T14:48:54;28.50;;;14.40;;
78622;SDS011;67943;54.412;9.502;2024-02-21T14:53:56;27.23;;;13.93;;
78622;SDS011;67943;54.412;9.502;2024-02-21T14:58:57;26.02;;;14.32;;
78622;SDS011;67943;54.412;9.502;2024-02-21T15:04:00;30.20;;;15.68;;
78622;SDS011;67943;54.412;9.502;2024-02-21T15:09:02;43.40;;;20.95;;
78622;SDS011;67943;54.412;9.502;2024-02-21T15:14:06;31.27;;;14.88;;
78622;SDS011;67943;54.412;9.502;2024-02-21T15:19:09;30.10;;;16.08;;
78622;SDS011;67943;54.412;9.502;2024-02-21T15:24:11;25.33;;;14.50;;
78622;SDS011;67943;54.412;9.502;2024-02-21T15:29:12;23.92;;;14.32;;
78622;SDS011;67943;54.412;9.502;2024-02-21T15:34:15;27.30;;;13.23;;
78622;SDS011;67943;54.412;9.502;2024-02-21T15:39:22;25.77;;;13.32;;
78622;SDS011;67943;54.412;9.502;2024-02-21T15:44:26;29.02;;;14.65;;
78622;SDS011;67943;54.412;9.502;2024-02-21T15:49:29;27.75;;;14.38;;
78622;SDS011;67943;54.412;9.502;2024-02-21T15:54:30;27.90;;;13.30;;
78622;SDS011;67943;54.412;9.502;2024-02-21T15:59:32;24.73;;;13.90;;
78622;SDS011;67943;54.412;9.502;2024-02-21T16:04:35;67.80;;;33.35;;
78622;SDS011;67943;54.412;9.502;2024-02-21T16:09:36;47.03;;;25.20;;
78622;SDS011;67943;54.412;9.502;2024-02-21T16:14:38;32.67;;;17.58;;
78622;SDS011;67943;54.412;9.502;2024-02-21T16:19:41;29.08;;;15.23;;
78622;SDS011;67943;54.412;9.502;2024-02-21T16:24:43;55.22;;;27.60;;
78622;SDS011;67943;54.412;9.502;2024-02-21T16:29:44;39.42;;;24.13;;
78622;SDS011;67943;54.412;9.502;2024-02-21T16:34:47;36.65;;;19.10;;
78622;SDS011;67943;54.412;9.502;2024-02-21T16:39:48;31.25;;;17.35;;
78622;SDS011;67943;54.412;9.502;2024-02-21T16:44:50;27.52;;;14.10;;
78622;SDS011;67943;54.412;9.502;2024-02-21T16:49:53;31.25;;;17.25;;
78622;SDS011;67943;54.412;9.502;2024-02-21T16:54:54;31.10;;;17.48;;
78622;SDS011;67943;54.412;9.502;2024-02-21T16:59:56;46.10;;;23.10;;
78622;SDS011;67943;54.412;9.502;2024-02-21T17:04:59;28.48;;;14.65;;
78622;SDS011;67943;54.412;9.502;2024-02-21T17:10:01;26.90;;;13.85;;
78622;SDS011;67943;54.412;9.502;2024-02-21T17:15:05;26.65;;;14.60;;
78622;SDS011;67943;54.412;9.502;2024-02-21T17:20:09;30.15;;;17.73;;
78622;SDS011;67943;54.412;9.502;2024-02-21T17:25:11;25.63;;;14.93;;
78622;SDS011;67943;54.412;9.502;2024-02-21T17:30:13;25.70;;;13.45;;
78622;SDS011;67943;54.412;9.502;2024-02-21T17:35:16;27.00;;;14.00;;
78622;SDS011;67943;54.412;9.502;2024-02-21T17:40:17;24.90;;;13.95;;
78622;SDS011;67943;54.412;9.502;2024-02-21T17:45:19;24.67;;;12.90;;
78622;SDS011;67943;54.412;9.502;2024-02-21T17:50:22;21.45;;;12.27;;
78622;SDS011;67943;54.412;9.502;2024-02-21T17:55:23;20.30;;;12.00;;
78622;SDS011;67943;54.412;9.502;2024-02-21T18:00:24;23.00;;;12.30;;
78622;SDS011;67943;54.412;9.502;2024-02-21T18:05:31;21.92;;;11.95;;
78622;SDS011;67943;54.412;9.502;2024-02-21T18:10:33;18.77;;;11.77;;
78622;SDS011;67943;54.412;9.502;2024-02-21T18:15:34;21.27;;;10.93;;
78622;SDS011;67943;54.412;9.502;2024-02-21T18:20:37;18.83;;;10.88;;
78622;SDS011;67943;54.412;9.502;2024-02-21T18:25:39;20.83;;;10.27;;
78622;SDS011;67943;54.412;9.502;2024-02-21T18:30:41;20.65;;;10.23;;
78622;SDS011;67943;54.412;9.502;2024-02-21T18:35:43;17.50;;;10.30;;
78622;SDS011;67943;54.412;9.502;2024-02-21T18:40:45;16.70;;;10.18;;
78622;SDS011;67943;54.412;9.502;2024-02-21T18:45:46;15.27;;;9.38;;
78622;SDS011;67943;54.412;9.502;2024-02-21T18:50:50;18.45;;;9.55;;
78622;SDS011;67943;54.412;9.502;2024-02-21T18:55:52;15.38;;;10.40;;
78622;SDS011;67943;54.412;9.502;2024-02-21T19:00:53;22.25;;;10.80;;
78622;SDS011;67943;54.412;9.502;2024-02-21T19:06:05;18.05;;;10.32;;
78622;SDS011;67943;54.412;9.502;2024-02-21T19:11:07;16.27;;;10.35;;
78622;SDS011;67943;54.412;9.502;2024-02-21T19:16:08;17.80;;;10.10;;
78622;SDS011;67943;54.412;9.502;2024-02-21T19:21:12;18.98;;;10.07;;
78622;SDS011;67943;54.412;9.502;2024-02-21T19:26:14;16.85;;;9.02;;
78622;SDS011;67943;54.412;9.502;2024-02-21T19:31:16;17.17;;;9.77;;
78622;SDS011;67943;54.412;9.502;2024-02-21T19:36:19;17.55;;;9.23;;
78622;SDS011;67943;54.412;9.502;2024-02-21T19:41:21;19.40;;;8.40;;
78622;SDS011;67943;54.412;9.502;2024-02-21T19:46:23;22.25;;;9.90;;
78622;SDS011;67943;54.412;9.502;2024-02-21T19:51:26;19.63;;;9.02;;
78622;SDS011;67943;54.412;9.502;2024-02-21T19:56:28;17.58;;;8.23;;
78622;SDS011;67943;54.412;9.502;2024-02-21T20:01:29;19.38;;;8.57;;
78622;SDS011;67943;54.412;9.502;2024-02-21T20:06:41;18.48;;;9.18;;
78622;SDS011;67943;54.412;9.502;2024-02-21T20:11:43;26.25;;;12.80;;
78622;SDS011;67943;54.412;9.502;2024-02-21T20:16:45;17.17;;;8.73;;
78622;SDS011;67943;54.412;9.502;2024-02-21T20:21:50;18.13;;;9.38;;
78622;SDS011;67943;54.412;9.502;2024-02-21T20:26:52;22.83;;;8.93;;
78622;SDS011;67943;54.412;9.502;2024-02-21T20:31:54;19.88;;;9.50;;
78622;SDS011;67943;54.412;9.502;2024-02-21T20:37:00;17.48;;;8.82;;
78622;SDS011;67943;54.412;9.502;2024-02-21T20:42:02;18.15;;;8.98;;
78622;SDS011;67943;54.412;9.502;2024-02-21T20:47:04;17.60;;;7.78;;
78622;SDS011;67943;54.412;9.502;2024-02-21T20:52:07;20.52;;;9.05;;
78622;SDS011;67943;54.412;9.502;2024-02-21T20:57:09;18.92;;;8.45;;
78622;SDS011;67943;54.412;9.502;2024-02-21T21:02:11;20.05;;;9.52;;
78622;SDS011;67943;54.412;9.502;2024-02-21T21:07:14;18.67;;;8.88;;
78622;SDS011;67943;54.412;9.502;2024-02-21T21:12:16;16.63;;;8.20;;
78622;SDS011;67943;54.412;9.502;2024-02-21T21:17:17;17.52;;;8.65;;
78622;SDS011;67943;54.412;9.502;2024-02-21T21:22:20;16.92;;;7.85;;
78622;SDS011;67943;54.412;9.502;2024-02-21T21:27:21;18.02;;;8.60;;
78622;SDS011;67943;54.412;9.502;2024-02-21T21:32:26;15.57;;;7.65;;
78622;SDS011;67943;54.412;9.502;2024-02-21T21:37:31;21.45;;;9.30;;
78622;SDS011;67943;54.412;9.502;2024-02-21T21:42:32;15.75;;;7.70;;
78622;SDS011;67943;54.412;9.502;2024-02-21T21:47:34;16.08;;;7.65;;
78622;SDS011;67943;54.412;9.502;2024-02-21T21:52:37;20.13;;;8.40;;
78622;SDS011;67943;54.412;9.502;2024-02-21T21:57:39;18.42;;;8.27;;
78622;SDS011;67943;54.412;9.502;2024-02-21T22:02:41;18.70;;;9.23;;
78622;SDS011;67943;54.412;9.502;2024-02-21T22:08:04;18.40;;;8.93;;
78622;SDS011;67943;54.412;9.502;2024-02-21T22:13:05;13.57;;;6.03;;
78622;SDS011;67943;54.412;9.502;2024-02-21T22:18:07;13.30;;;6.32;;
78622;SDS011;67943;54.412;9.502;2024-02-21T22:23:10;13.43;;;6.15;;
78622;SDS011;67943;54.412;9.502;2024-02-21T22:28:11;12.40;;;6.45;;
78622;SDS011;67943;54.412;9.502;2024-02-21T22:33:13;12.88;;;6.38;;
78622;SDS011;67943;54.412;9.502;2024-02-21T22:38:16;13.65;;;5.90;;
78622;SDS011;67943;54.412;9.502;2024-02-21T22:43:17;11.82;;;5.82;;
78622;SDS011;67943;54.412;9.502;2024-02-21T22:48:19;16.55;;;6.65;;
78622;SDS011;67943;54.412;9.502;2024-02-21T22:53:22;10.75;;;6.10;;
78622;SDS011;67943;54.412;9.502;2024-02-21T22:58:23;9.82;;;5.32;;
78622;SDS011;67943;54.412;9.502;2024-02-21T23:03:25;13.95;;;6.22;;
78622;SDS011;67943;54.412;9.502;2024-02-21T23:08:28;17.52;;;6.55;;
78622;SDS011;67943;54.412;9.502;2024-02-21T23:13:29;13.32;;;6.47;;
78622;SDS011;67943;54.412;9.502;2024-02-21T23:18:31;11.70;;;5.10;;
78622;SDS011;67943;54.412;9.502;2024-02-21T23:23:34;10.90;;;5.70;;
78622;SDS011;67943;54.412;9.502;2024-02-21T23:28:35;12.80;;;6.15;;
78622;SDS011;67943;54.412;9.502;2024-02-21T23:33:37;8.85;;;5.00;;
78622;SDS011;67943;54.412;9.502;2024-02-21T23:38:40;12.80;;;5.72;;
78622;SDS011;67943;54.412;9.502;2024-02-21T23:43:42;8.40;;;4.63;;
78622;SDS011;67943;54.412;9.502;2024-02-21T23:48:44;12.10;;;5.47;;
78622;SDS011;67943;54.412;9.502;2024-02-21T23:53:47;10.27;;;5.32;;
78622;SDS011;67943;54.412;9.502;2024-02-21T23:58:49;12.60;;;5.90;;
